sensor_id;sensor_type;location;lat;lon;timestamp;temperature;humidity
55121;DHT22;41019;48.512;9.036;2023-12-04T00:01:32;-4.00;96.00
55121;DHT22;41019;48.512;9.036;2023-12-04T00:03:58;-4.00;96.00
55121;DHT22;41019;48.512;9.036;2023-12-04T00:06:24;-4.00;96.00
55121;DHT22;41019;48.512;9.036;2023-12-04T00:08:50;-4.00;95.90
55121;DHT22;41019;48.512;9.036;2023-12-04T00:11:16;-4.10;96.00
55121;DHT22;41019;48.512;9.036;2023-12-04T00:13:42;-4.10;96.10
55121;DHT22;41019;48.512;9.036;2023-12-04T00:16:09;-4.10;95.90
55121;DHT22;41019;48.512;9.036;2023-12-04T00:18:34;-4.20;95.90
55121;DHT22;41019;48.512;9.036;2023-12-04T00:21:00;-4.20;96.00
55121;DHT22;41019;48.512;9.036;2023-12-04T00:23:26;-4.20;96.10
55121;DHT22;41019;48.512;9.036;2023-12-04T00:25:53;-4.20;96.40
55121;DHT22;41019;48.512;9.036;2023-12-04T00:28:19;-4.20;96.50
55121;DHT22;41019;48.512;9.036;2023-12-04T00:30:46;-4.20;96.40
55121;DHT22;41019;48.512;9.036;2023-12-04T00:33:12;-4.20;96.50
55121;DHT22;41019;48.512;9.036;2023-12-04T00:35:38;-4.20;96.70
55121;DHT22;41019;48.512;9.036;2023-12-04T00:38:03;-4.20;96.50
55121;DHT22;41019;48.512;9.036;2023-12-04T00:40:29;-4.20;96.50
55121;DHT22;41019;48.512;9.036;2023-12-04T00:42:55;-4.30;96.20
55121;DHT22;41019;48.512;9.036;2023-12-04T00:45:21;-4.30;96.40
55121;DHT22;41019;48.512;9.036;2023-12-04T00:47:47;-4.30;96.30
55121;DHT22;41019;48.512;9.036;2023-12-04T00:50:13;-4.30;96.40
55121;DHT22;41019;48.512;9.036;2023-12-04T00:52:39;-4.30;96.10
55121;DHT22;41019;48.512;9.036;2023-12-04T00:55:05;-4.30;96.20
55121;DHT22;41019;48.512;9.036;2023-12-04T00:57:31;-4.30;96.40
55121;DHT22;41019;48.512;9.036;2023-12-04T00:59:57;-4.40;96.20
55121;DHT22;41019;48.512;9.036;2023-12-04T01:02:23;-4.40;96.20
55121;DHT22;41019;48.512;9.036;2023-12-04T01:04:49;-4.40;96.20
55121;DHT22;41019;48.512;9.036;2023-12-04T01:07:15;-4.40;96.30
55121;DHT22;41019;48.512;9.036;2023-12-04T01:09:41;-4.40;96.30
55121;DHT22;41019;48.512;9.036;2023-12-04T01:12:06;-4.40;96.20
55121;DHT22;41019;48.512;9.036;2023-12-04T01:14:32;-4.40;96.20
55121;DHT22;41019;48.512;9.036;2023-12-04T01:16:58;-4.40;96.10
55121;DHT22;41019;48.512;9.036;2023-12-04T01:19:24;-4.40;96.20
55121;DHT22;41019;48.512;9.036;2023-12-04T01:21:50;-4.40;96.00
55121;DHT22;41019;48.512;9.036;2023-12-04T01:24:16;-4.40;95.80
55121;DHT22;41019;48.512;9.036;2023-12-04T01:26:41;-4.50;95.80
55121;DHT22;41019;48.512;9.036;2023-12-04T01:29:08;-4.50;95.80
55121;DHT22;41019;48.512;9.036;2023-12-04T01:31:34;-4.60;96.10
55121;DHT22;41019;48.512;9.036;2023-12-04T01:34:00;-4.60;96.10
55121;DHT22;41019;48.512;9.036;2023-12-04T01:36:26;-4.60;96.00
55121;DHT22;41019;48.512;9.036;2023-12-04T01:38:52;-4.60;96.10
55121;DHT22;41019;48.512;9.036;2023-12-04T01:41:18;-4.60;95.90
55121;DHT22;41019;48.512;9.036;2023-12-04T01:43:43;-4.60;95.40
55121;DHT22;41019;48.512;9.036;2023-12-04T01:46:10;-4.70;95.60
55121;DHT22;41019;48.512;9.036;2023-12-04T01:48:37;-4.70;95.60
55121;DHT22;41019;48.512;9.036;2023-12-04T01:51:07;-4.70;95.80
55121;DHT22;41019;48.512;9.036;2023-12-04T01:53:37;-4.70;95.70
55121;DHT22;41019;48.512;9.036;2023-12-04T01:56:04;-4.70;95.50
55121;DHT22;41019;48.512;9.036;2023-12-04T01:58:31;-4.80;95.30
55121;DHT22;41019;48.512;9.036;2023-12-04T02:00:57;-4.80;95.40
55121;DHT22;41019;48.512;9.036;2023-12-04T02:03:23;-4.90;95.00
55121;DHT22;41019;48.512;9.036;2023-12-04T02:05:51;-5.00;95.00
55121;DHT22;41019;48.512;9.036;2023-12-04T02:08:18;-5.00;95.00
55121;DHT22;41019;48.512;9.036;2023-12-04T02:10:44;-5.00;95.00
55121;DHT22;41019;48.512;9.036;2023-12-04T02:13:11;-5.00;94.90
55121;DHT22;41019;48.512;9.036;2023-12-04T02:15:37;-5.10;94.80
55121;DHT22;41019;48.512;9.036;2023-12-04T02:18:03;-5.10;94.70
55121;DHT22;41019;48.512;9.036;2023-12-04T02:20:33;-5.10;94.50
55121;DHT22;41019;48.512;9.036;2023-12-04T02:23:03;-5.10;94.40
55121;DHT22;41019;48.512;9.036;2023-12-04T02:25:29;-5.20;94.30
55121;DHT22;41019;48.512;9.036;2023-12-04T02:28:01;-5.20;93.90
55121;DHT22;41019;48.512;9.036;2023-12-04T02:30:30;-5.20;94.30
55121;DHT22;41019;48.512;9.036;2023-12-04T02:32:58;-5.20;94.30
55121;DHT22;41019;48.512;9.036;2023-12-04T02:35:29;-5.30;94.30
55121;DHT22;41019;48.512;9.036;2023-12-04T02:37:57;-5.30;94.50
55121;DHT22;41019;48.512;9.036;2023-12-04T02:40:24;-5.30;94.60
55121;DHT22;41019;48.512;9.036;2023-12-04T02:42:51;-5.30;94.60
55121;DHT22;41019;48.512;9.036;2023-12-04T02:45:16;-5.30;94.60
55121;DHT22;41019;48.512;9.036;2023-12-04T02:47:43;-5.30;94.60
55121;DHT22;41019;48.512;9.036;2023-12-04T02:50:08;-5.30;94.70
55121;DHT22;41019;48.512;9.036;2023-12-04T02:52:34;-5.30;94.70
55121;DHT22;41019;48.512;9.036;2023-12-04T02:55:00;-5.30;94.60
55121;DHT22;41019;48.512;9.036;2023-12-04T02:57:26;-5.30;94.80
55121;DHT22;41019;48.512;9.036;2023-12-04T02:59:52;-5.30;94.80
55121;DHT22;41019;48.512;9.036;2023-12-04T03:02:18;-5.20;94.70
55121;DHT22;41019;48.512;9.036;2023-12-04T03:04:45;-5.20;94.60
55121;DHT22;41019;48.512;9.036;2023-12-04T03:07:11;-5.30;94.60
55121;DHT22;41019;48.512;9.036;2023-12-04T03:09:37;-5.20;94.30
55121;DHT22;41019;48.512;9.036;2023-12-04T03:12:03;-5.30;94.30
55121;DHT22;41019;48.512;9.036;2023-12-04T03:14:29;-5.30;94.40
55121;DHT22;41019;48.512;9.036;2023-12-04T03:16:54;-5.30;94.30
55121;DHT22;41019;48.512;9.036;2023-12-04T03:19:20;-5.30;94.20
55121;DHT22;41019;48.512;9.036;2023-12-04T03:21:46;-5.30;94.20
55121;DHT22;41019;48.512;9.036;2023-12-04T03:24:12;-5.30;94.40
55121;DHT22;41019;48.512;9.036;2023-12-04T03:26:38;-5.30;94.20
55121;DHT22;41019;48.512;9.036;2023-12-04T03:29:04;-5.30;94.30
55121;DHT22;41019;48.512;9.036;2023-12-04T03:31:30;-5.30;94.30
55121;DHT22;41019;48.512;9.036;2023-12-04T03:33:57;-5.30;94.30
55121;DHT22;41019;48.512;9.036;2023-12-04T03:36:22;-5.30;94.40
55121;DHT22;41019;48.512;9.036;2023-12-04T03:38:48;-5.30;94.40
55121;DHT22;41019;48.512;9.036;2023-12-04T03:41:15;-5.30;94.50
55121;DHT22;41019;48.512;9.036;2023-12-04T03:43:41;-5.30;94.60
55121;DHT22;41019;48.512;9.036;2023-12-04T03:46:08;-5.30;94.60
55121;DHT22;41019;48.512;9.036;2023-12-04T03:48:34;-5.30;94.70
55121;DHT22;41019;48.512;9.036;2023-12-04T03:51:00;-5.30;94.50
55121;DHT22;41019;48.512;9.036;2023-12-04T03:53:26;-5.30;94.40
55121;DHT22;41019;48.512;9.036;2023-12-04T03:55:52;-5.30;94.30
55121;DHT22;41019;48.512;9.036;2023-12-04T03:58:18;-5.30;94.40
55121;DHT22;41019;48.512;9.036;2023-12-04T04:00:44;-5.30;94.40
55121;DHT22;41019;48.512;9.036;2023-12-04T04:03:10;-5.30;94.40
55121;DHT22;41019;48.512;9.036;2023-12-04T04:05:36;-5.30;94.40
55121;DHT22;41019;48.512;9.036;2023-12-04T04:08:02;-5.30;94.30
55121;DHT22;41019;48.512;9.036;2023-12-04T04:10:28;-5.30;94.50
55121;DHT22;41019;48.512;9.036;2023-12-04T04:12:54;-5.30;94.40
55121;DHT22;41019;48.512;9.036;2023-12-04T04:15:20;-5.30;94.40
55121;DHT22;41019;48.512;9.036;2023-12-04T04:17:46;-5.30;94.50
55121;DHT22;41019;48.512;9.036;2023-12-04T04:20:12;-5.30;94.50
55121;DHT22;41019;48.512;9.036;2023-12-04T04:22:38;-5.30;94.50
55121;DHT22;41019;48.512;9.036;2023-12-04T04:25:09;-5.30;94.50
55121;DHT22;41019;48.512;9.036;2023-12-04T04:27:35;-5.20;94.70
55121;DHT22;41019;48.512;9.036;2023-12-04T04:30:02;-5.20;94.60
55121;DHT22;41019;48.512;9.036;2023-12-04T04:32:28;-5.20;94.40
55121;DHT22;41019;48.512;9.036;2023-12-04T04:34:54;-5.20;94.50
55121;DHT22;41019;48.512;9.036;2023-12-04T04:37:20;-5.20;94.50
55121;DHT22;41019;48.512;9.036;2023-12-04T04:39:46;-5.20;94.60
55121;DHT22;41019;48.512;9.036;2023-12-04T04:42:11;-5.20;94.60
55121;DHT22;41019;48.512;9.036;2023-12-04T04:44:37;-5.20;94.50
55121;DHT22;41019;48.512;9.036;2023-12-04T04:47:03;-5.20;94.60
55121;DHT22;41019;48.512;9.036;2023-12-04T04:49:29;-5.10;94.40
55121;DHT22;41019;48.512;9.036;2023-12-04T04:51:55;-5.20;94.20
55121;DHT22;41019;48.512;9.036;2023-12-04T04:54:21;-5.20;94.00
55121;DHT22;41019;48.512;9.036;2023-12-04T04:56:46;-5.10;94.10
55121;DHT22;41019;48.512;9.036;2023-12-04T04:59:13;-5.20;94.40
55121;DHT22;41019;48.512;9.036;2023-12-04T05:01:39;-5.20;94.40
55121;DHT22;41019;48.512;9.036;2023-12-04T05:04:05;-5.20;94.50
55121;DHT22;41019;48.512;9.036;2023-12-04T05:06:31;-5.20;94.60
55121;DHT22;41019;48.512;9.036;2023-12-04T05:08:56;-5.10;94.70
55121;DHT22;41019;48.512;9.036;2023-12-04T05:11:22;-5.10;94.70
55121;DHT22;41019;48.512;9.036;2023-12-04T05:13:49;-5.10;94.50
55121;DHT22;41019;48.512;9.036;2023-12-04T05:16:15;-5.10;94.40
55121;DHT22;41019;48.512;9.036;2023-12-04T05:18:41;-5.00;94.30
55121;DHT22;41019;48.512;9.036;2023-12-04T05:21:11;-5.10;93.90
55121;DHT22;41019;48.512;9.036;2023-12-04T05:23:37;-5.10;94.20
55121;DHT22;41019;48.512;9.036;2023-12-04T05:26:05;-5.10;94.00
55121;DHT22;41019;48.512;9.036;2023-12-04T05:28:31;-5.00;94.20
55121;DHT22;41019;48.512;9.036;2023-12-04T05:30:56;-5.00;94.20
55121;DHT22;41019;48.512;9.036;2023-12-04T05:33:22;-5.00;94.00
55121;DHT22;41019;48.512;9.036;2023-12-04T05:35:48;-5.00;94.20
55121;DHT22;41019;48.512;9.036;2023-12-04T05:38:17;-5.00;94.20
55121;DHT22;41019;48.512;9.036;2023-12-04T05:40:43;-5.00;94.40
55121;DHT22;41019;48.512;9.036;2023-12-04T05:43:09;-5.00;94.40
55121;DHT22;41019;48.512;9.036;2023-12-04T05:45:35;-5.00;94.30
55121;DHT22;41019;48.512;9.036;2023-12-04T05:48:01;-5.00;94.70
55121;DHT22;41019;48.512;9.036;2023-12-04T05:50:27;-4.90;94.60
55121;DHT22;41019;48.512;9.036;2023-12-04T05:52:54;-4.90;94.50
55121;DHT22;41019;48.512;9.036;2023-12-04T05:55:20;-4.90;94.90
55121;DHT22;41019;48.512;9.036;2023-12-04T05:57:46;-4.90;94.40
55121;DHT22;41019;48.512;9.036;2023-12-04T06:00:12;-4.90;94.40
55121;DHT22;41019;48.512;9.036;2023-12-04T06:02:40;-4.90;94.50
55121;DHT22;41019;48.512;9.036;2023-12-04T06:05:07;-4.80;94.60
55121;DHT22;41019;48.512;9.036;2023-12-04T06:07:33;-4.80;94.70
55121;DHT22;41019;48.512;9.036;2023-12-04T06:10:00;-4.80;94.60
55121;DHT22;41019;48.512;9.036;2023-12-04T06:12:26;-4.80;94.60
55121;DHT22;41019;48.512;9.036;2023-12-04T06:14:52;-4.80;94.60
55121;DHT22;41019;48.512;9.036;2023-12-04T06:17:18;-4.80;94.70
55121;DHT22;41019;48.512;9.036;2023-12-04T06:19:45;-4.70;94.70
55121;DHT22;41019;48.512;9.036;2023-12-04T06:22:11;-4.70;94.70
55121;DHT22;41019;48.512;9.036;2023-12-04T06:24:38;-4.70;94.80
55121;DHT22;41019;48.512;9.036;2023-12-04T06:27:04;-4.70;95.00
55121;DHT22;41019;48.512;9.036;2023-12-04T06:29:32;-4.60;95.10
55121;DHT22;41019;48.512;9.036;2023-12-04T06:31:58;-4.60;95.10
55121;DHT22;41019;48.512;9.036;2023-12-04T06:34:24;-4.60;94.90
55121;DHT22;41019;48.512;9.036;2023-12-04T06:36:50;-4.60;95.10
55121;DHT22;41019;48.512;9.036;2023-12-04T06:39:17;-4.60;94.80
55121;DHT22;41019;48.512;9.036;2023-12-04T06:41:44;-4.60;94.80
55121;DHT22;41019;48.512;9.036;2023-12-04T06:44:12;-4.60;94.80
55121;DHT22;41019;48.512;9.036;2023-12-04T06:46:38;-4.60;94.70
55121;DHT22;41019;48.512;9.036;2023-12-04T06:49:05;-4.60;94.50
55121;DHT22;41019;48.512;9.036;2023-12-04T06:51:34;-4.60;94.70
55121;DHT22;41019;48.512;9.036;2023-12-04T06:54:00;-4.60;94.70
55121;DHT22;41019;48.512;9.036;2023-12-04T06:56:26;-4.50;94.80
55121;DHT22;41019;48.512;9.036;2023-12-04T06:58:52;-4.50;94.80
55121;DHT22;41019;48.512;9.036;2023-12-04T07:01:18;-4.50;95.00
55121;DHT22;41019;48.512;9.036;2023-12-04T07:03:44;-4.50;94.90
55121;DHT22;41019;48.512;9.036;2023-12-04T07:06:10;-4.50;94.90
55121;DHT22;41019;48.512;9.036;2023-12-04T07:08:37;-4.50;94.90
55121;DHT22;41019;48.512;9.036;2023-12-04T07:11:03;-4.40;94.90
55121;DHT22;41019;48.512;9.036;2023-12-04T07:13:28;-4.40;94.90
55121;DHT22;41019;48.512;9.036;2023-12-04T07:15:54;-4.40;94.80
55121;DHT22;41019;48.512;9.036;2023-12-04T07:18:20;-4.40;94.80
55121;DHT22;41019;48.512;9.036;2023-12-04T07:20:46;-4.30;94.70
55121;DHT22;41019;48.512;9.036;2023-12-04T07:23:12;-4.30;94.70
55121;DHT22;41019;48.512;9.036;2023-12-04T07:25:38;-4.30;94.70
55121;DHT22;41019;48.512;9.036;2023-12-04T07:28:04;-4.20;94.70
55121;DHT22;41019;48.512;9.036;2023-12-04T07:30:29;-4.20;94.90
55121;DHT22;41019;48.512;9.036;2023-12-04T07:32:55;-4.20;94.90
55121;DHT22;41019;48.512;9.036;2023-12-04T07:35:21;-4.10;94.90
55121;DHT22;41019;48.512;9.036;2023-12-04T07:37:47;-4.10;94.90
55121;DHT22;41019;48.512;9.036;2023-12-04T07:40:14;-4.10;95.10
55121;DHT22;41019;48.512;9.036;2023-12-04T07:42:41;-4.00;95.10
55121;DHT22;41019;48.512;9.036;2023-12-04T07:45:09;-4.00;95.20
55121;DHT22;41019;48.512;9.036;2023-12-04T07:47:36;-3.90;95.30
55121;DHT22;41019;48.512;9.036;2023-12-04T07:50:02;-3.90;95.10
55121;DHT22;41019;48.512;9.036;2023-12-04T07:52:28;-3.90;95.00
55121;DHT22;41019;48.512;9.036;2023-12-04T07:54:54;-3.90;95.00
55121;DHT22;41019;48.512;9.036;2023-12-04T07:57:19;-3.80;95.10
55121;DHT22;41019;48.512;9.036;2023-12-04T07:59:45;-3.80;94.80
55121;DHT22;41019;48.512;9.036;2023-12-04T08:02:12;-3.70;95.00
55121;DHT22;41019;48.512;9.036;2023-12-04T08:04:37;-3.60;95.00
55121;DHT22;41019;48.512;9.036;2023-12-04T08:07:03;-3.60;94.80
55121;DHT22;41019;48.512;9.036;2023-12-04T08:09:29;-3.60;94.90
55121;DHT22;41019;48.512;9.036;2023-12-04T08:11:55;-3.50;94.90
55121;DHT22;41019;48.512;9.036;2023-12-04T08:14:21;-3.50;95.20
55121;DHT22;41019;48.512;9.036;2023-12-04T08:16:48;-3.50;95.30
55121;DHT22;41019;48.512;9.036;2023-12-04T08:19:14;-3.50;95.20
55121;DHT22;41019;48.512;9.036;2023-12-04T08:21:39;-3.50;95.00
55121;DHT22;41019;48.512;9.036;2023-12-04T08:24:05;-3.50;95.00
55121;DHT22;41019;48.512;9.036;2023-12-04T08:26:31;-3.50;95.00
55121;DHT22;41019;48.512;9.036;2023-12-04T08:28:57;-3.40;95.00
55121;DHT22;41019;48.512;9.036;2023-12-04T08:31:23;-3.40;94.90
55121;DHT22;41019;48.512;9.036;2023-12-04T08:33:49;-3.40;94.90
55121;DHT22;41019;48.512;9.036;2023-12-04T08:36:15;-3.30;94.90
55121;DHT22;41019;48.512;9.036;2023-12-04T08:38:40;-3.30;95.00
55121;DHT22;41019;48.512;9.036;2023-12-04T08:41:07;-3.30;94.80
55121;DHT22;41019;48.512;9.036;2023-12-04T08:43:32;-3.30;95.00
55121;DHT22;41019;48.512;9.036;2023-12-04T08:45:58;-3.20;94.80
55121;DHT22;41019;48.512;9.036;2023-12-04T08:48:26;-3.20;94.90
55121;DHT22;41019;48.512;9.036;2023-12-04T08:50:52;-3.20;94.90
55121;DHT22;41019;48.512;9.036;2023-12-04T08:53:18;-3.10;95.00
55121;DHT22;41019;48.512;9.036;2023-12-04T08:55:44;-3.00;94.70
55121;DHT22;41019;48.512;9.036;2023-12-04T08:58:10;-3.00;94.80
55121;DHT22;41019;48.512;9.036;2023-12-04T09:00:36;-3.00;94.80
55121;DHT22;41019;48.512;9.036;2023-12-04T09:03:03;-3.00;94.80
55121;DHT22;41019;48.512;9.036;2023-12-04T09:05:29;-2.90;95.00
55121;DHT22;41019;48.512;9.036;2023-12-04T09:07:55;-2.80;95.10
55121;DHT22;41019;48.512;9.036;2023-12-04T09:10:21;-2.70;95.00
55121;DHT22;41019;48.512;9.036;2023-12-04T09:12:47;-2.60;95.00
55121;DHT22;41019;48.512;9.036;2023-12-04T09:15:13;-2.50;95.20
55121;DHT22;41019;48.512;9.036;2023-12-04T09:17:39;-2.40;95.30
55121;DHT22;41019;48.512;9.036;2023-12-04T09:20:05;-2.40;95.80
55121;DHT22;41019;48.512;9.036;2023-12-04T09:22:31;-2.30;95.40
55121;DHT22;41019;48.512;9.036;2023-12-04T09:24:57;-2.20;95.10
55121;DHT22;41019;48.512;9.036;2023-12-04T09:27:23;-2.10;95.20
55121;DHT22;41019;48.512;9.036;2023-12-04T09:29:49;-2.00;95.20
55121;DHT22;41019;48.512;9.036;2023-12-04T09:32:15;-2.00;95.20
55121;DHT22;41019;48.512;9.036;2023-12-04T09:34:40;-1.90;95.20
55121;DHT22;41019;48.512;9.036;2023-12-04T09:37:06;-1.90;95.20
55121;DHT22;41019;48.512;9.036;2023-12-04T09:39:33;-1.90;95.40
55121;DHT22;41019;48.512;9.036;2023-12-04T09:42:00;-1.80;95.50
55121;DHT22;41019;48.512;9.036;2023-12-04T09:44:28;-1.80;95.30
55121;DHT22;41019;48.512;9.036;2023-12-04T09:46:54;-1.80;95.20
55121;DHT22;41019;48.512;9.036;2023-12-04T09:49:22;-1.70;94.90
55121;DHT22;41019;48.512;9.036;2023-12-04T09:51:48;-1.70;94.90
55121;DHT22;41019;48.512;9.036;2023-12-04T09:54:16;-1.70;95.10
55121;DHT22;41019;48.512;9.036;2023-12-04T09:56:43;-1.70;94.60
55121;DHT22;41019;48.512;9.036;2023-12-04T09:59:13;-1.70;94.70
55121;DHT22;41019;48.512;9.036;2023-12-04T10:01:40;-1.70;94.70
55121;DHT22;41019;48.512;9.036;2023-12-04T10:04:06;-1.70;95.10
55121;DHT22;41019;48.512;9.036;2023-12-04T10:06:33;-1.60;95.10
55121;DHT22;41019;48.512;9.036;2023-12-04T10:09:00;-1.60;94.70
55121;DHT22;41019;48.512;9.036;2023-12-04T10:11:26;-1.60;94.50
55121;DHT22;41019;48.512;9.036;2023-12-04T10:13:53;-1.60;94.30
55121;DHT22;41019;48.512;9.036;2023-12-04T10:16:37;-1.60;94.50
55121;DHT22;41019;48.512;9.036;2023-12-04T10:19:17;-1.60;94.20
55121;DHT22;41019;48.512;9.036;2023-12-04T10:21:48;-1.50;94.30
55121;DHT22;41019;48.512;9.036;2023-12-04T10:24:34;-1.50;94.60
55121;DHT22;41019;48.512;9.036;2023-12-04T10:27:06;-1.40;94.50
55121;DHT22;41019;48.512;9.036;2023-12-04T10:29:45;-1.40;95.00
55121;DHT22;41019;48.512;9.036;2023-12-04T10:32:13;-1.30;95.20
55121;DHT22;41019;48.512;9.036;2023-12-04T10:34:41;-1.30;94.70
55121;DHT22;41019;48.512;9.036;2023-12-04T10:37:10;-1.30;94.60
55121;DHT22;41019;48.512;9.036;2023-12-04T10:39:50;-1.20;94.80
55121;DHT22;41019;48.512;9.036;2023-12-04T10:42:29;-1.20;94.50
55121;DHT22;41019;48.512;9.036;2023-12-04T10:44:59;-1.20;94.40
55121;DHT22;41019;48.512;9.036;2023-12-04T10:47:29;-1.10;94.60
55121;DHT22;41019;48.512;9.036;2023-12-04T10:49:58;-1.10;94.50
55121;DHT22;41019;48.512;9.036;2023-12-04T10:52:24;-0.90;94.80
55121;DHT22;41019;48.512;9.036;2023-12-04T10:54:50;-0.80;94.40
55121;DHT22;41019;48.512;9.036;2023-12-04T10:57:30;-0.70;94.40
55121;DHT22;41019;48.512;9.036;2023-12-04T11:00:00;-0.60;94.30
55121;DHT22;41019;48.512;9.036;2023-12-04T11:02:29;-0.60;94.30
55121;DHT22;41019;48.512;9.036;2023-12-04T11:05:06;-0.60;94.20
55121;DHT22;41019;48.512;9.036;2023-12-04T11:07:49;-0.50;94.30
55121;DHT22;41019;48.512;9.036;2023-12-04T11:10:22;-0.50;94.50
55121;DHT22;41019;48.512;9.036;2023-12-04T11:13:07;-0.40;95.10
55121;DHT22;41019;48.512;9.036;2023-12-04T11:15:39;-0.40;95.10
55121;DHT22;41019;48.512;9.036;2023-12-04T11:18:07;-0.30;95.30
55121;DHT22;41019;48.512;9.036;2023-12-04T11:20:41;-0.20;95.50
55121;DHT22;41019;48.512;9.036;2023-12-04T11:23:09;-0.20;95.40
55121;DHT22;41019;48.512;9.036;2023-12-04T11:25:34;-0.10;95.30
55121;DHT22;41019;48.512;9.036;2023-12-04T11:28:02;0.00;95.50
55121;DHT22;41019;48.512;9.036;2023-12-04T11:30:30;0.10;95.60
55121;DHT22;41019;48.512;9.036;2023-12-04T11:32:56;0.20;95.40
55121;DHT22;41019;48.512;9.036;2023-12-04T11:35:27;0.30;94.50
55121;DHT22;41019;48.512;9.036;2023-12-04T11:37:54;0.40;94.90
55121;DHT22;41019;48.512;9.036;2023-12-04T11:40:20;0.40;95.00
55121;DHT22;41019;48.512;9.036;2023-12-04T11:42:46;0.50;95.10
55121;DHT22;41019;48.512;9.036;2023-12-04T11:45:19;0.50;94.70
55121;DHT22;41019;48.512;9.036;2023-12-04T11:47:56;0.60;94.90
55121;DHT22;41019;48.512;9.036;2023-12-04T11:50:25;0.60;94.60
55121;DHT22;41019;48.512;9.036;2023-12-04T11:52:51;0.60;94.70
55121;DHT22;41019;48.512;9.036;2023-12-04T11:55:20;0.70;94.70
55121;DHT22;41019;48.512;9.036;2023-12-04T11:57:50;0.70;94.80
55121;DHT22;41019;48.512;9.036;2023-12-04T12:03:06;1.00;94.70
55121;DHT22;41019;48.512;9.036;2023-12-04T12:05:33;1.10;94.70
55121;DHT22;41019;48.512;9.036;2023-12-04T12:08:04;1.10;94.80
55121;DHT22;41019;48.512;9.036;2023-12-04T12:10:32;1.20;94.50
55121;DHT22;41019;48.512;9.036;2023-12-04T12:12:59;1.30;94.50
55121;DHT22;41019;48.512;9.036;2023-12-04T12:15:25;1.30;94.30
55121;DHT22;41019;48.512;9.036;2023-12-04T12:17:52;1.30;94.80
55121;DHT22;41019;48.512;9.036;2023-12-04T12:20:18;1.30;94.60
55121;DHT22;41019;48.512;9.036;2023-12-04T12:22:48;1.40;94.40
55121;DHT22;41019;48.512;9.036;2023-12-04T12:25:15;1.40;94.60
55121;DHT22;41019;48.512;9.036;2023-12-04T12:27:42;1.40;94.60
55121;DHT22;41019;48.512;9.036;2023-12-04T12:30:10;1.40;94.50
55121;DHT22;41019;48.512;9.036;2023-12-04T12:32:36;1.30;94.80
55121;DHT22;41019;48.512;9.036;2023-12-04T12:35:03;1.40;94.60
55121;DHT22;41019;48.512;9.036;2023-12-04T12:37:33;1.30;94.80
55121;DHT22;41019;48.512;9.036;2023-12-04T12:39:59;1.30;94.90
55121;DHT22;41019;48.512;9.036;2023-12-04T12:42:29;1.40;95.00
55121;DHT22;41019;48.512;9.036;2023-12-04T12:45:00;1.30;95.00
55121;DHT22;41019;48.512;9.036;2023-12-04T12:47:26;1.40;95.00
55121;DHT22;41019;48.512;9.036;2023-12-04T12:49:53;1.30;95.30
55121;DHT22;41019;48.512;9.036;2023-12-04T12:52:19;1.40;94.80
55121;DHT22;41019;48.512;9.036;2023-12-04T12:54:46;1.40;94.90
55121;DHT22;41019;48.512;9.036;2023-12-04T12:57:12;1.40;95.00
55121;DHT22;41019;48.512;9.036;2023-12-04T12:59:39;1.30;95.30
55121;DHT22;41019;48.512;9.036;2023-12-04T13:02:06;1.40;94.80
55121;DHT22;41019;48.512;9.036;2023-12-04T13:04:40;1.30;94.80
55121;DHT22;41019;48.512;9.036;2023-12-04T13:07:06;1.30;94.30
55121;DHT22;41019;48.512;9.036;2023-12-04T13:09:36;1.20;94.00
55121;DHT22;41019;48.512;9.036;2023-12-04T13:12:04;1.20;94.10
55121;DHT22;41019;48.512;9.036;2023-12-04T13:14:31;1.10;94.50
55121;DHT22;41019;48.512;9.036;2023-12-04T13:16:56;1.10;95.00
55121;DHT22;41019;48.512;9.036;2023-12-04T13:19:23;1.10;95.20
55121;DHT22;41019;48.512;9.036;2023-12-04T13:21:50;1.10;95.20
55121;DHT22;41019;48.512;9.036;2023-12-04T13:24:16;1.00;95.20
55121;DHT22;41019;48.512;9.036;2023-12-04T13:26:43;1.10;94.40
55121;DHT22;41019;48.512;9.036;2023-12-04T13:29:10;1.10;94.60
55121;DHT22;41019;48.512;9.036;2023-12-04T13:31:36;1.10;95.00
55121;DHT22;41019;48.512;9.036;2023-12-04T13:34:03;1.20;94.40
55121;DHT22;41019;48.512;9.036;2023-12-04T13:36:33;1.10;94.30
55121;DHT22;41019;48.512;9.036;2023-12-04T13:38:59;1.00;94.60
55121;DHT22;41019;48.512;9.036;2023-12-04T13:41:26;1.00;94.80
55121;DHT22;41019;48.512;9.036;2023-12-04T13:44:10;1.00;94.70
55121;DHT22;41019;48.512;9.036;2023-12-04T13:46:40;0.90;94.30
55121;DHT22;41019;48.512;9.036;2023-12-04T13:49:06;0.90;94.20
55121;DHT22;41019;48.512;9.036;2023-12-04T13:51:32;0.90;94.50
55121;DHT22;41019;48.512;9.036;2023-12-04T13:53:58;0.90;95.10
55121;DHT22;41019;48.512;9.036;2023-12-04T13:56:34;0.90;94.90
55121;DHT22;41019;48.512;9.036;2023-12-04T13:59:30;0.90;95.10
55121;DHT22;41019;48.512;9.036;2023-12-04T14:01:58;0.90;95.10
55121;DHT22;41019;48.512;9.036;2023-12-04T14:04:25;1.00;94.70
55121;DHT22;41019;48.512;9.036;2023-12-04T14:06:52;0.90;94.60
55121;DHT22;41019;48.512;9.036;2023-12-04T14:09:18;0.90;94.40
55121;DHT22;41019;48.512;9.036;2023-12-04T14:11:44;1.00;94.50
55121;DHT22;41019;48.512;9.036;2023-12-04T14:14:11;0.90;94.70
55121;DHT22;41019;48.512;9.036;2023-12-04T14:16:38;0.90;94.70
55121;DHT22;41019;48.512;9.036;2023-12-04T14:19:04;1.00;94.90
55121;DHT22;41019;48.512;9.036;2023-12-04T14:21:30;1.00;95.00
55121;DHT22;41019;48.512;9.036;2023-12-04T14:23:56;1.00;95.20
55121;DHT22;41019;48.512;9.036;2023-12-04T14:26:22;1.00;95.40
55121;DHT22;41019;48.512;9.036;2023-12-04T14:28:48;1.10;95.30
55121;DHT22;41019;48.512;9.036;2023-12-04T14:31:14;1.10;95.60
55121;DHT22;41019;48.512;9.036;2023-12-04T14:33:40;1.10;95.50
55121;DHT22;41019;48.512;9.036;2023-12-04T14:36:06;1.10;95.60
55121;DHT22;41019;48.512;9.036;2023-12-04T14:38:32;1.00;95.60
55121;DHT22;41019;48.512;9.036;2023-12-04T14:40:58;1.00;95.60
55121;DHT22;41019;48.512;9.036;2023-12-04T14:43:25;1.10;95.50
55121;DHT22;41019;48.512;9.036;2023-12-04T14:45:50;1.10;95.30
55121;DHT22;41019;48.512;9.036;2023-12-04T14:48:16;1.00;95.50
55121;DHT22;41019;48.512;9.036;2023-12-04T14:50:42;1.00;95.50
55121;DHT22;41019;48.512;9.036;2023-12-04T14:53:07;1.00;95.60
55121;DHT22;41019;48.512;9.036;2023-12-04T14:55:54;1.00;95.80
55121;DHT22;41019;48.512;9.036;2023-12-04T14:58:39;1.00;95.80
55121;DHT22;41019;48.512;9.036;2023-12-04T15:01:12;1.00;96.00
55121;DHT22;41019;48.512;9.036;2023-12-04T15:03:40;1.10;96.00
55121;DHT22;41019;48.512;9.036;2023-12-04T15:06:25;1.10;95.90
55121;DHT22;41019;48.512;9.036;2023-12-04T15:09:09;1.10;95.90
55121;DHT22;41019;48.512;9.036;2023-12-04T15:11:42;1.10;95.90
55121;DHT22;41019;48.512;9.036;2023-12-04T15:14:36;1.10;96.10
55121;DHT22;41019;48.512;9.036;2023-12-04T15:17:26;1.10;96.10
55121;DHT22;41019;48.512;9.036;2023-12-04T15:19:58;1.10;96.30
55121;DHT22;41019;48.512;9.036;2023-12-04T15:22:36;1.10;96.50
55121;DHT22;41019;48.512;9.036;2023-12-04T15:25:05;1.10;96.50
55121;DHT22;41019;48.512;9.036;2023-12-04T15:27:37;1.10;96.40
55121;DHT22;41019;48.512;9.036;2023-12-04T15:30:04;1.00;96.60
55121;DHT22;41019;48.512;9.036;2023-12-04T15:32:32;1.00;96.60
55121;DHT22;41019;48.512;9.036;2023-12-04T15:34:58;1.00;96.70
55121;DHT22;41019;48.512;9.036;2023-12-04T15:37:24;1.00;96.80
55121;DHT22;41019;48.512;9.036;2023-12-04T15:39:51;1.00;96.70